Time;durP1;ratioP1;P1;durP2;ratioP2;P2;SDS_P1;SDS_P2;PMS_P1;PMS_P2;Temp;Humidity;BMP_temperature;BMP_pressure;BME280_temperature;BME280_humidity;BME280_pressure;Samples;Min_cycle;Max_cycle;Signal;HPM_P1;HPM_P2
2021/03/09 00:01:45;;;;;;;5.10;3.07;;;-6.10;96.30;;;;;;4973635;28;20318;-72
2021/03/09 00:04:10;;;;;;;4.77;3.00;;;-6.00;96.30;;;;;;4973654;28;20229;-72
2021/03/09 00:06:36;;;;;;;4.33;2.87;;;-5.90;96.30;;;;;;4973805;28;20224;-72
2021/03/09 00:09:01;;;;;;;6.33;3.17;;;-5.90;96.30;;;;;;4971704;28;20244;-73
2021/03/09 00:11:27;;;;;;;6.80;3.97;;;-6.00;96.30;;;;;;4973788;28;20180;-72
2021/03/09 00:13:52;;;;;;;6.27;3.47;;;-6.00;96.30;;;;;;4973731;28;20229;-72
2021/03/09 00:16:18;;;;;;;5.00;3.40;;;-6.00;96.30;;;;;;4973114;28;20176;-72
2021/03/09 00:18:43;;;;;;;4.57;3.30;;;-6.00;96.30;;;;;;4972901;28;20194;-72
2021/03/09 00:21:08;;;;;;;4.50;3.63;;;-5.90;96.30;;;;;;4972105;28;20753;-72
2021/03/09 00:23:34;;;;;;;6.07;3.50;;;-5.90;96.30;;;;;;4972633;28;20173;-72
2021/03/09 00:25:59;;;;;;;5.80;3.37;;;-5.90;96.30;;;;;;4974044;28;20326;-72
2021/03/09 00:28:25;;;;;;;5.03;3.40;;;-5.90;96.30;;;;;;4973115;28;20190;-72
2021/03/09 00:30:50;;;;;;;7.27;3.27;;;-5.80;96.30;;;;;;4972875;28;20237;-72
2021/03/09 00:33:16;;;;;;;5.63;3.40;;;-5.80;96.30;;;;;;4973431;28;20181;-73
2021/03/09 00:35:41;;;;;;;7.23;3.30;;;-5.70;96.30;;;;;;4973511;28;20194;-72
2021/03/09 00:38:07;;;;;;;6.93;2.93;;;-5.60;96.30;;;;;;4972714;28;20201;-72
2021/03/09 00:40:32;;;;;;;4.53;3.43;;;-5.70;96.30;;;;;;4973322;28;20184;-72
2021/03/09 00:42:58;;;;;;;6.67;3.23;;;-5.70;96.30;;;;;;4973216;28;20186;-72
2021/03/09 00:45:23;;;;;;;6.20;2.60;;;-5.80;96.30;;;;;;4971944;28;20530;-72
2021/03/09 00:47:49;;;;;;;4.60;3.50;;;-5.80;96.30;;;;;;4972630;28;20195;-72
2021/03/09 00:50:15;;;;;;;7.17;3.07;;;-5.90;96.30;;;;;;4973420;28;20178;-72
2021/03/09 00:52:40;;;;;;;4.87;3.00;;;-6.00;96.30;;;;;;4973385;28;20177;-72
2021/03/09 00:55:07;;;;;;;8.10;3.10;;;-5.90;96.30;;;;;;4973117;28;20418;-72
2021/03/09 00:57:32;;;;;;;8.13;2.60;;;-5.80;96.30;;;;;;4971182;28;20193;-72
2021/03/09 00:59:57;;;;;;;6.33;3.97;;;-5.80;96.30;;;;;;4973113;28;20422;-72
2021/03/09 05:00:37;;;;;;;2.90;2.40;;;-3.80;96.30;;;;;;5909806;22;20491;-79
2021/03/09 05:03:02;;;;;;;4.60;2.30;;;-3.80;96.30;;;;;;4993215;28;20425;-79
2021/03/09 05:05:28;;;;;;;3.20;2.70;;;-3.70;96.30;;;;;;4996690;28;20180;-79
2021/03/09 05:07:53;;;;;;;2.30;2.07;;;-3.80;96.30;;;;;;4996101;28;20181;-79
2021/03/09 05:10:19;;;;;;;7.43;2.53;;;-3.80;96.30;;;;;;4996685;28;20196;-79
2021/03/09 05:12:47;;;;;;;4.73;2.70;;;-3.80;96.30;;;;;;5008013;23;20173;-74
2021/03/09 05:15:14;;;;;;;3.83;2.47;;;-3.80;96.30;;;;;;4990838;28;20421;-74
2021/03/09 05:17:39;;;;;;;4.73;2.90;;;-3.80;96.30;;;;;;4995920;28;20420;-74
2021/03/09 05:20:07;;;;;;;3.97;3.33;;;-3.70;96.30;;;;;;4996017;28;20476;-74
2021/03/09 05:22:32;;;;;;;8.40;3.13;;;-3.70;96.30;;;;;;4993273;28;20229;-74
2021/03/09 05:24:58;;;;;;;6.30;3.30;;;-3.70;96.30;;;;;;4976899;28;20413;-75
2021/03/09 05:27:23;;;;;;;4.13;2.80;;;-3.60;96.30;;;;;;4974727;28;20185;-74
2021/03/09 05:29:49;;;;;;;4.60;2.17;;;-3.60;96.30;;;;;;4976379;28;20576;-74
2021/03/09 05:32:14;;;;;;;8.23;3.17;;;-3.60;96.30;;;;;;4976631;28;20213;-74
2021/03/09 05:34:40;;;;;;;3.57;2.63;;;-3.50;96.30;;;;;;4976661;28;20290;-75
2021/03/09 05:37:08;;;;;;;3.40;2.53;;;-3.50;96.30;;;;;;4976059;28;20174;-75
2021/03/09 05:39:34;;;;;;;10.93;3.03;;;-3.50;96.30;;;;;;4975764;28;20891;-74
2021/03/09 05:42:00;;;;;;;3.30;2.80;;;-3.50;96.30;;;;;;4976519;28;20449;-74
2021/03/09 05:44:25;;;;;;;4.23;2.33;;;-3.40;96.30;;;;;;4976575;28;20444;-74
2021/03/09 05:46:51;;;;;;;5.10;2.53;;;-3.40;96.30;;;;;;4976671;28;20177;-74
2021/03/09 05:49:16;;;;;;;4.03;2.63;;;-3.30;96.30;;;;;;4976058;28;20186;-75
2021/03/09 05:51:42;;;;;;;6.33;3.27;;;-3.30;96.30;;;;;;4976212;28;20182;-75
2021/03/09 05:54:08;;;;;;;2.40;1.97;;;-3.30;96.30;;;;;;4976193;28;20198;-74
2021/03/09 05:56:33;;;;;;;8.80;3.57;;;-3.30;96.30;;;;;;4976355;28;20646;-77
2021/03/09 05:58:59;;;;;;;5.07;2.60;;;-3.20;96.30;;;;;;4974633;28;20178;-74
2021/03/09 06:01:24;;;;;;;8.00;2.60;;;-3.20;96.30;;;;;;4976157;28;20669;-73
2021/03/09 06:03:50;;;;;;;5.30;2.63;;;-3.10;96.30;;;;;;4976283;28;20194;-73
2021/03/09 06:06:15;;;;;;;3.53;3.10;;;-3.10;96.30;;;;;;4973224;28;20167;-73
2021/03/09 06:08:41;;;;;;;8.50;3.90;;;-3.10;96.30;;;;;;4966467;28;20211;-73
2021/03/09 06:11:16;;;;;;;5.43;4.00;;;-3.10;96.30;;;;;;4956467;28;20206;-74
2021/03/09 06:13:42;;;;;;;8.60;5.27;;;-3.00;96.30;;;;;;4956490;28;20264;-73
2021/03/09 06:16:08;;;;;;;5.23;3.90;;;-3.00;96.30;;;;;;4956663;28;20422;-73
2021/03/09 06:18:33;;;;;;;5.10;2.80;;;-3.00;96.30;;;;;;4968658;28;20487;-74
2021/03/09 06:21:12;;;;;;;4.10;3.27;;;-2.90;96.30;;;;;;4976802;28;20709;-74
2021/03/09 06:23:38;;;;;;;4.90;3.60;;;-2.80;96.30;;;;;;4956883;28;20322;-75
2021/03/09 06:26:39;;;;;;;4.80;3.10;;;-2.80;96.30;;;;;;4959017;28;20776;-74
2021/03/09 06:29:16;;;;;;;4.00;2.77;;;-2.70;96.30;;;;;;4973422;28;20407;-75
2021/03/09 06:32:03;;;;;;;4.63;3.20;;;-2.70;96.30;;;;;;4995159;28;20389;-74
2021/03/09 06:34:33;;;;;;;4.33;2.80;;;-2.60;96.30;;;;;;4994997;28;20932;-74
2021/03/09 06:37:24;;;;;;;6.07;2.20;;;-2.60;96.30;;;;;;4994384;28;20491;-73
2021/03/09 06:39:58;;;;;;;4.50;2.80;;;-2.40;96.30;;;;;;4993722;28;20405;-74
2021/03/09 06:42:25;;;;;;;6.23;2.90;;;-2.30;96.30;;;;;;4982559;28;20536;-75
2021/03/09 06:44:53;;;;;;;8.97;3.57;;;-2.30;96.30;;;;;;4974686;28;20954;-73
2021/03/09 06:47:31;;;;;;;5.13;2.77;;;-2.30;96.30;;;;;;4973759;28;20422;-74
2021/03/09 06:49:57;;;;;;;5.53;2.90;;;-2.20;96.30;;;;;;4975022;28;20409;-74
2021/03/09 06:52:23;;;;;;;18.23;10.30;;;-2.10;96.30;;;;;;4975261;28;20414;-74
2021/03/09 06:54:53;;;;;;;7.40;4.43;;;-1.90;96.30;;;;;;4975300;28;20437;-74
2021/03/09 06:57:19;;;;;;;6.43;3.13;;;-1.90;96.30;;;;;;4974964;28;20170;-75
2021/03/09 06:59:50;;;;;;;5.00;3.40;;;-1.80;96.30;;;;;;4974944;28;20496;-74
2021/03/09 07:02:18;;;;;;;6.20;3.10;;;-1.80;96.30;;;;;;4975064;28;20480;-74
2021/03/09 07:05:00;;;;;;;5.00;3.57;;;-1.80;96.30;;;;;;4975151;28;20484;-74
2021/03/09 07:07:32;;;;;;;5.23;3.00;;;-1.70;96.30;;;;;;4974380;28;20421;-74
2021/03/09 07:10:10;;;;;;;5.50;3.80;;;-1.70;96.30;;;;;;4975067;28;20409;-73
2021/03/09 07:12:39;;;;;;;12.53;5.37;;;-1.60;96.30;;;;;;4975051;28;20858;-74
2021/03/09 07:15:07;;;;;;;11.00;5.83;;;-1.60;96.30;;;;;;4994308;28;20977;-75
2021/03/09 07:17:35;;;;;;;10.40;5.77;;;-1.50;96.30;;;;;;4965137;28;20869;-74
2021/03/09 07:20:03;;;;;;;7.50;4.97;;;-1.40;96.30;;;;;;4972933;28;20442;-73
2021/03/09 07:22:30;;;;;;;5.00;4.20;;;-1.20;96.30;;;;;;4974418;28;20491;-74
2021/03/09 07:25:15;;;;;;;9.83;3.57;;;-0.90;96.30;;;;;;4974713;28;20422;-74
2021/03/09 07:27:56;;;;;;;8.93;2.47;;;-0.90;96.30;;;;;;4973505;28;20461;-75
2021/03/09 07:30:24;;;;;;;7.07;3.70;;;-0.80;95.90;;;;;;4974714;28;21018;-74
2021/03/09 07:32:51;;;;;;;6.73;3.07;;;-0.80;94.80;;;;;;4974524;28;20441;-74
2021/03/09 07:35:20;;;;;;;6.43;3.77;;;-0.60;96.30;;;;;;4974594;28;20898;-75
2021/03/09 07:37:46;;;;;;;6.40;3.50;;;-0.80;95.10;;;;;;4974034;28;20417;-74
2021/03/09 07:40:14;;;;;;;7.10;4.30;;;-0.60;95.40;;;;;;4971497;28;20425;-74
2021/03/09 07:42:41;;;;;;;9.23;4.30;;;-0.40;95.60;;;;;;4974038;28;20213;-75
2021/03/09 07:45:14;;;;;;;5.10;3.30;;;-0.20;94.30;;;;;;4974511;28;20493;-75
2021/03/09 07:47:43;;;;;;;7.07;3.47;;;0.00;91.90;;;;;;4973083;28;20440;-75
2021/03/09 07:50:12;;;;;;;9.00;3.63;;;0.10;90.30;;;;;;4974525;28;20865;-75
2021/03/09 07:52:37;;;;;;;9.90;4.70;;;0.10;91.30;;;;;;4974087;28;20417;-75
2021/03/09 07:55:02;;;;;;;10.50;5.10;;;0.00;92.30;;;;;;4974343;28;20417;-75
2021/03/09 07:57:30;;;;;;;10.30;3.50;;;0.40;90.70;;;;;;4965527;28;20655;-75
2021/03/09 08:00:01;;;;;;;10.20;3.53;;;0.60;88.90;;;;;;4954769;28;20190;-75
2021/03/09 08:02:45;;;;;;;5.23;3.23;;;0.70;89.90;;;;;;4953519;29;20462;-75
2021/03/09 08:05:16;;;;;;;4.47;3.33;;;1.10;88.70;;;;;;4963358;28;20897;-75
2021/03/09 08:07:53;;;;;;;8.33;4.07;;;1.10;87.70;;;;;;4973671;28;20830;-75
2021/03/09 08:10:33;;;;;;;5.97;2.90;;;0.90;88.30;;;;;;4974070;28;20393;-75
2021/03/09 08:13:08;;;;;;;8.10;3.40;;;1.20;87.20;;;;;;4974022;28;20437;-75
2021/03/09 08:15:38;;;;;;;4.50;3.50;;;0.90;88.40;;;;;;4974124;28;20406;-75
2021/03/09 08:18:21;;;;;;;3.73;2.93;;;1.10;86.10;;;;;;4973843;28;20472;-75
2021/03/09 08:20:58;;;;;;;3.13;2.83;;;1.00;87.70;;;;;;4973665;28;20420;-75
2021/03/09 08:23:35;;;;;;;5.40;2.90;;;1.20;87.70;;;;;;4973898;28;20821;-75
2021/03/09 08:26:07;;;;;;;3.93;2.67;;;1.30;87.30;;;;;;4973845;28;20833;-75
2021/03/09 08:28:40;;;;;;;5.33;3.73;;;1.30;86.20;;;;;;4973521;28;20401;-75
2021/03/09 08:31:11;;;;;;;9.93;3.40;;;1.40;86.50;;;;;;4973735;28;20421;-75
2021/03/09 08:33:47;;;;;;;6.10;3.17;;;1.50;86.10;;;;;;4973655;28;20937;-75
2021/03/09 08:41:38;;;;;;;5.33;3.40;;;1.30;86.60;;;;;;4973464;28;20472;-75
2021/03/09 08:44:19;;;;;;;4.70;3.30;;;1.20;86.50;;;;;;4966805;28;20446;-75
2021/03/09 08:47:09;;;;;;;5.27;2.87;;;1.40;87.10;;;;;;4964971;28;20417;-75
2021/03/09 08:49:43;;;;;;;5.33;2.80;;;1.50;86.00;;;;;;4973458;28;20936;-75
2021/03/09 08:52:18;;;;;;;5.33;2.83;;;1.50;84.90;;;;;;4968741;28;20503;-75
2021/03/09 08:54:45;;;;;;;8.77;2.73;;;1.50;83.00;;;;;;4973467;28;20552;-75
2021/03/09 08:57:17;;;;;;;5.00;3.30;;;1.60;82.90;;;;;;4973099;28;20414;-75
2021/03/09 08:59:43;;;;;;;4.70;3.07;;;1.90;84.90;;;;;;4972248;28;20421;-75
2021/03/09 09:02:23;;;;;;;4.80;3.00;;;2.00;82.40;;;;;;4972113;28;20461;-75
2021/03/09 09:05:06;;;;;;;5.37;2.80;;;2.00;82.00;;;;;;4973249;28;20893;-75
2021/03/09 09:07:41;;;;;;;4.70;2.70;;;2.10;81.80;;;;;;4973019;28;20453;-75
2021/03/09 09:10:24;;;;;;;2.20;1.93;;;2.20;81.30;;;;;;4973125;28;20417;-75
2021/03/09 09:12:51;;;;;;;8.70;4.10;;;2.50;82.30;;;;;;4955158;28;20449;-75
2021/03/09 09:15:29;;;;;;;5.93;2.60;;;2.80;81.00;;;;;;4962009;28;20446;-75
2021/03/09 09:18:05;;;;;;;11.43;5.50;;;3.10;78.80;;;;;;4972564;28;20770;-75
2021/03/09 09:20:32;;;;;;;5.63;3.33;;;3.30;77.00;;;;;;4967738;28;20421;-75
2021/03/09 09:23:06;;;;;;;5.77;3.10;;;3.60;77.40;;;;;;4954461;28;20874;-75
2021/03/09 09:25:37;;;;;;;5.80;3.40;;;3.90;75.90;;;;;;4972111;28;20459;-75
2021/03/09 09:28:03;;;;;;;10.23;3.80;;;3.80;74.30;;;;;;4972690;28;20766;-75
2021/03/09 09:30:39;;;;;;;7.83;3.97;;;3.80;73.20;;;;;;4965309;28;20423;-75
2021/03/09 09:33:06;;;;;;;4.70;3.40;;;3.60;74.40;;;;;;4970582;28;20807;-75
2021/03/09 09:35:32;;;;;;;7.10;3.80;;;3.50;74.40;;;;;;4973203;28;20421;-74
2021/03/09 09:38:01;;;;;;;4.57;3.30;;;3.40;75.20;;;;;;4972744;28;20918;-75
2021/03/09 09:40:30;;;;;;;3.67;2.57;;;3.70;73.10;;;;;;4973056;28;20500;-74
2021/03/09 09:43:00;;;;;;;3.97;2.83;;;4.00;72.40;;;;;;4971470;28;21035;-74
2021/03/09 09:45:27;;;;;;;5.97;3.13;;;3.80;70.40;;;;;;4973068;28;20398;-74
2021/03/09 09:47:53;;;;;;;3.57;2.87;;;4.10;72.60;;;;;;4954184;28;20427;-75
2021/03/09 09:50:21;;;;;;;6.23;2.83;;;4.20;72.20;;;;;;4956067;28;20509;-74
2021/03/09 09:52:55;;;;;;;3.37;2.20;;;4.20;70.90;;;;;;4957229;28;20473;-74
2021/03/09 09:55:21;;;;;;;4.50;2.20;;;4.60;69.90;;;;;;4957260;28;20760;-74
2021/03/09 09:57:51;;;;;;;2.80;2.17;;;4.50;68.90;;;;;;4957129;28;20419;-74
2021/03/09 10:00:22;;;;;;;7.17;2.30;;;4.40;69.00;;;;;;4965663;28;20434;-74
2021/03/09 10:03:11;;;;;;;4.03;2.33;;;4.50;69.20;;;;;;4956787;28;20458;-75
2021/03/09 10:05:38;;;;;;;6.83;2.50;;;4.40;67.90;;;;;;4955804;29;20410;-74
2021/03/09 10:08:04;;;;;;;6.30;2.73;;;5.00;69.40;;;;;;4956345;28;20446;-74
2021/03/09 10:10:31;;;;;;;3.27;2.20;;;5.00;66.40;;;;;;4956806;28;20929;-74
2021/03/09 10:12:56;;;;;;;4.50;2.40;;;5.00;67.00;;;;;;4956614;28;20449;-74
2021/03/09 10:15:22;;;;;;;4.70;2.50;;;5.10;66.90;;;;;;4956828;29;20415;-75
2021/03/09 10:17:48;;;;;;;4.70;3.50;;;5.20;67.40;;;;;;4956275;29;20631;-75
2021/03/09 10:20:24;;;;;;;4.80;2.47;;;5.30;66.90;;;;;;4955438;29;20171;-75
2021/03/09 10:23:01;;;;;;;5.37;2.80;;;5.60;67.80;;;;;;4956498;28;20576;-75
2021/03/09 10:25:27;;;;;;;5.70;3.23;;;5.20;66.50;;;;;;4956763;28;20451;-74
2021/03/09 10:28:02;;;;;;;3.47;2.97;;;4.90;65.50;;;;;;4956218;29;20406;-74
2021/03/09 10:30:41;;;;;;;2.83;2.43;;;4.70;67.40;;;;;;4956519;28;20754;-74
2021/03/09 10:33:11;;;;;;;5.23;2.93;;;4.70;66.50;;;;;;4961758;28;20433;-74
2021/03/09 10:36:06;;;;;;;3.57;2.90;;;4.60;66.10;;;;;;4975205;28;20405;-74
2021/03/09 10:38:32;;;;;;;6.80;3.70;;;4.80;67.80;;;;;;4975310;28;20413;-74
2021/03/09 10:40:58;;;;;;;15.17;3.80;;;4.90;66.70;;;;;;4974163;28;20413;-74
2021/03/09 10:43:45;;;;;;;3.40;2.43;;;5.20;66.00;;;;;;4967376;28;20438;-75
2021/03/09 10:46:12;;;;;;;5.20;2.77;;;5.40;63.90;;;;;;4956140;28;20411;-76
2021/03/09 10:48:39;;;;;;;6.77;2.93;;;5.20;65.20;;;;;;4955803;28;20419;-74
2021/03/09 10:51:18;;;;;;;3.80;3.10;;;4.60;65.30;;;;;;4956070;28;20425;-75
2021/03/09 10:53:44;;;;;;;3.77;2.90;;;4.40;66.60;;;;;;4973080;28;20845;-75
2021/03/09 10:56:10;;;;;;;3.93;2.63;;;4.70;67.60;;;;;;4973717;28;20989;-75
2021/03/09 10:58:36;;;;;;;4.47;2.67;;;4.80;66.40;;;;;;4974797;28;20492;-75
2021/03/09 11:01:01;;;;;;;3.40;2.50;;;4.60;65.40;;;;;;4974194;28;20210;-75
2021/03/09 11:03:27;;;;;;;5.20;2.97;;;4.40;66.90;;;;;;4975148;28;20193;-75
2021/03/09 11:05:52;;;;;;;3.70;2.90;;;4.70;66.10;;;;;;4975082;28;20261;-75
2021/03/09 11:08:18;;;;;;;4.83;3.00;;;4.70;66.20;;;;;;4974580;28;20189;-75
2021/03/09 11:10:43;;;;;;;3.67;3.00;;;5.10;65.60;;;;;;4975080;28;20170;-75
2021/03/09 11:13:09;;;;;;;5.20;3.20;;;5.20;64.30;;;;;;4964490;28;20222;-75
2021/03/09 11:15:34;;;;;;;6.83;3.33;;;5.20;65.30;;;;;;4955862;29;20222;-74
2021/03/09 11:17:59;;;;;;;4.80;3.10;;;5.30;64.10;;;;;;4955110;29;20175;-75
2021/03/09 11:20:25;;;;;;;5.10;3.23;;;5.40;66.30;;;;;;4955753;29;20175;-75
2021/03/09 11:22:51;;;;;;;5.30;3.33;;;5.30;64.80;;;;;;4954678;29;20207;-74
2021/03/09 11:25:16;;;;;;;5.00;3.90;;;5.60;66.00;;;;;;4955769;29;20175;-74
2021/03/09 11:27:42;;;;;;;3.90;2.87;;;5.60;64.40;;;;;;4961677;28;20225;-75
2021/03/09 11:30:08;;;;;;;5.17;3.37;;;5.60;64.40;;;;;;4973923;28;20273;-75
2021/03/09 11:32:34;;;;;;;6.07;3.60;;;5.30;64.10;;;;;;4973788;28;20178;-75
2021/03/09 11:34:59;;;;;;;3.90;2.97;;;5.40;67.00;;;;;;4982226;28;20492;-75
2021/03/09 11:37:25;;;;;;;5.70;4.10;;;5.10;66.30;;;;;;4977979;28;20183;-75
2021/03/09 11:39:50;;;;;;;6.27;4.10;;;4.80;65.80;;;;;;4975162;28;20182;-74
2021/03/09 11:42:16;;;;;;;5.97;4.27;;;5.00;67.10;;;;;;4979958;28;20261;-75
2021/03/09 11:44:41;;;;;;;5.00;3.50;;;5.20;64.10;;;;;;4978588;28;20202;-75
2021/03/09 11:47:07;;;;;;;5.27;3.60;;;5.30;64.50;;;;;;4968022;28;20178;-74
2021/03/09 11:49:33;;;;;;;4.13;3.00;;;5.30;64.40;;;;;;4976747;28;20260;-75
2021/03/09 11:51:58;;;;;;;4.53;3.10;;;5.20;64.80;;;;;;4979612;28;20433;-74
2021/03/09 11:54:24;;;;;;;6.20;3.17;;;5.10;62.50;;;;;;4983347;28;20738;-74
2021/03/09 11:56:49;;;;;;;4.43;2.93;;;5.30;63.00;;;;;;4973863;28;20209;-74
2021/03/09 11:59:15;;;;;;;7.00;3.73;;;5.30;63.70;;;;;;4972975;28;20261;-75
2021/03/09 12:01:40;;;;;;;4.93;3.47;;;5.50;64.90;;;;;;4972571;28;20566;-75
2021/03/09 12:04:05;;;;;;;6.30;3.07;;;5.70;64.40;;;;;;4973949;28;20190;-75
2021/03/09 12:06:31;;;;;;;5.60;3.57;;;5.90;63.10;;;;;;4973699;28;20701;-75
2021/03/09 12:08:57;;;;;;;5.90;3.90;;;6.00;62.70;;;;;;4973033;28;20174;-75
2021/03/09 12:11:22;;;;;;;10.43;5.33;;;5.80;63.30;;;;;;4973929;28;20658;-75
2021/03/09 12:13:48;;;;;;;7.33;4.33;;;5.80;63.50;;;;;;4973508;28;20224;-75
2021/03/09 12:16:14;;;;;;;5.53;4.07;;;5.80;64.50;;;;;;4973810;28;20254;-75
2021/03/09 12:18:39;;;;;;;5.90;3.03;;;5.70;62.80;;;;;;4973301;28;20441;-75
2021/03/09 12:21:05;;;;;;;8.90;4.10;;;6.30;61.60;;;;;;4973722;28;20218;-75
2021/03/09 12:23:31;;;;;;;9.17;4.83;;;6.40;60.40;;;;;;4983484;28;20201;-75
2021/03/09 12:25:56;;;;;;;5.60;2.83;;;5.90;63.80;;;;;;4973803;28;20182;-75
2021/03/09 12:28:22;;;;;;;5.13;3.30;;;5.70;61.30;;;;;;4972122;28;20174;-74
2021/03/09 12:30:48;;;;;;;7.73;4.57;;;5.40;62.60;;;;;;4969854;28;20237;-75
2021/03/09 12:33:13;;;;;;;5.67;4.30;;;5.50;62.20;;;;;;4972820;28;20195;-75
2021/03/09 12:35:39;;;;;;;6.77;4.63;;;5.60;62.50;;;;;;4972732;28;20185;-75
2021/03/09 12:38:04;;;;;;;6.90;4.10;;;5.70;62.00;;;;;;4972571;28;20201;-72
2021/03/09 12:40:30;;;;;;;7.53;4.10;;;5.90;63.20;;;;;;4973093;28;20193;-72
2021/03/09 12:42:56;;;;;;;5.57;4.20;;;5.70;64.20;;;;;;4964352;28;20206;-72
2021/03/09 12:45:21;;;;;;;7.13;4.53;;;6.10;61.50;;;;;;4972913;28;20188;-72
2021/03/09 12:47:49;;;;;;;9.60;4.20;;;6.40;62.50;;;;;;4959207;28;20182;-72
2021/03/09 12:50:15;;;;;;;6.20;2.97;;;6.60;59.70;;;;;;4966977;28;20186;-72
2021/03/09 12:52:41;;;;;;;7.13;3.87;;;6.20;58.30;;;;;;4972753;28;20914;-72
2021/03/09 12:55:07;;;;;;;5.23;3.83;;;6.20;56.80;;;;;;4972157;28;20428;-72
2021/03/09 12:57:33;;;;;;;6.90;3.57;;;5.80;59.70;;;;;;4970999;28;20185;-72
2021/03/09 12:59:58;;;;;;;6.63;3.90;;;5.60;57.70;;;;;;4972131;28;20426;-72
2021/03/09 13:02:24;;;;;;;5.43;3.53;;;5.70;59.10;;;;;;4972265;28;20674;-72
2021/03/09 13:04:51;;;;;;;3.37;2.40;;;6.00;58.10;;;;;;4972277;28;20205;-72
2021/03/09 13:07:16;;;;;;;10.23;3.40;;;5.70;57.70;;;;;;4972147;28;20181;-72
2021/03/09 13:09:42;;;;;;;4.37;3.30;;;5.40;57.50;;;;;;4972246;28;20501;-72
2021/03/09 13:12:08;;;;;;;6.50;3.47;;;5.40;57.10;;;;;;4972877;28;20792;-72
2021/03/09 13:14:33;;;;;;;4.00;3.17;;;5.50;58.90;;;;;;4966495;28;20211;-72
2021/03/09 13:16:59;;;;;;;4.30;3.30;;;5.60;57.20;;;;;;4972178;28;20174;-72
2021/03/09 13:19:25;;;;;;;7.10;4.13;;;5.90;56.60;;;;;;4971298;28;20174;-72
2021/03/09 13:21:52;;;;;;;7.70;3.33;;;5.60;58.90;;;;;;4972495;28;20562;-72
2021/03/09 13:24:18;;;;;;;5.80;3.97;;;5.30;58.20;;;;;;4973456;28;20797;-72
2021/03/09 13:26:43;;;;;;;3.47;2.53;;;5.20;57.90;;;;;;4976410;28;20423;-72
2021/03/09 13:29:09;;;;;;;8.27;3.73;;;5.50;58.50;;;;;;4975018;28;20317;-72
2021/03/09 13:31:34;;;;;;;7.87;3.73;;;5.40;57.10;;;;;;4976000;28;20197;-72
2021/03/09 13:34:01;;;;;;;5.40;3.50;;;5.00;60.00;;;;;;4968518;28;20213;-72
2021/03/09 13:36:27;;;;;;;7.00;3.90;;;5.50;59.40;;;;;;4972129;28;20194;-72
2021/03/09 13:38:52;;;;;;;5.30;3.23;;;5.30;58.80;;;;;;4974133;28;20425;-72
2021/03/09 13:41:18;;;;;;;6.23;3.70;;;5.70;58.90;;;;;;4976142;28;20213;-72
2021/03/09 13:43:45;;;;;;;6.03;3.40;;;5.90;57.40;;;;;;4976905;28;20591;-72
2021/03/09 13:46:11;;;;;;;7.00;3.40;;;6.00;58.70;;;;;;4978620;28;20177;-72
2021/03/09 13:48:39;;;;;;;5.70;3.30;;;6.20;56.90;;;;;;4975489;28;20422;-72
2021/03/09 13:51:05;;;;;;;4.50;3.60;;;6.10;56.30;;;;;;4985167;28;20174;-72
2021/03/09 13:53:31;;;;;;;5.37;3.73;;;6.20;56.40;;;;;;4984503;28;20444;-73
2021/03/09 13:55:56;;;;;;;5.30;3.07;;;5.90;56.90;;;;;;4976214;28;20917;-72
2021/03/09 13:58:22;;;;;;;6.17;4.03;;;5.90;55.70;;;;;;4958466;28;20643;-72
2021/03/09 14:00:47;;;;;;;8.60;3.77;;;6.20;58.50;;;;;;4956213;29;20182;-73
2021/03/09 14:03:13;;;;;;;8.90;2.67;;;5.50;56.60;;;;;;4964049;28;20214;-73
2021/03/09 14:05:39;;;;;;;4.03;2.90;;;5.70;56.60;;;;;;4976016;28;20185;-72
2021/03/09 14:08:05;;;;;;;4.60;2.67;;;5.60;57.40;;;;;;4967992;28;20187;-72
2021/03/09 14:10:30;;;;;;;4.90;3.70;;;5.70;56.60;;;;;;4956748;29;20780;-73
2021/03/09 14:12:56;;;;;;;9.03;3.03;;;5.60;56.30;;;;;;4956408;28;20617;-72
2021/03/09 14:15:21;;;;;;;11.03;3.57;;;5.60;57.10;;;;;;4956607;29;20175;-73
2021/03/09 14:17:47;;;;;;;3.70;3.07;;;5.70;56.90;;;;;;4968333;28;20194;-73
2021/03/09 14:20:15;;;;;;;4.90;3.37;;;6.00;54.80;;;;;;4975578;28;20276;-73
2021/03/09 14:22:42;;;;;;;5.10;3.63;;;6.40;55.30;;;;;;4975283;28;20566;-73
2021/03/09 14:25:09;;;;;;;5.53;3.97;;;6.30;55.10;;;;;;4974359;28;20421;-73
2021/03/09 14:27:35;;;;;;;5.07;3.83;;;6.30;55.40;;;;;;4974390;28;20913;-72
2021/03/09 14:30:01;;;;;;;5.10;3.57;;;6.00;55.20;;;;;;4975163;28;20444;-72
2021/03/09 14:32:27;;;;;;;6.30;4.10;;;6.00;55.50;;;;;;4979696;28;20262;-72
2021/03/09 14:34:52;;;;;;;8.10;4.13;;;5.80;56.40;;;;;;4975569;28;20528;-73
2021/03/09 14:37:21;;;;;;;10.17;4.17;;;5.90;56.60;;;;;;4975145;28;20630;-73
2021/03/09 14:39:46;;;;;;;7.80;3.33;;;5.40;57.80;;;;;;4975859;28;20177;-72
2021/03/09 14:42:12;;;;;;;10.73;4.47;;;5.60;56.20;;;;;;4980461;28;20449;-75
2021/03/09 14:44:37;;;;;;;5.00;3.87;;;5.80;56.90;;;;;;4959407;28;20235;-75
2021/03/09 14:47:03;;;;;;;9.77;4.30;;;5.90;56.70;;;;;;4961496;28;20174;-76
2021/03/09 14:49:28;;;;;;;5.20;3.70;;;6.20;56.80;;;;;;4958168;28;20691;-75
2021/03/09 14:51:54;;;;;;;7.43;5.40;;;6.20;55.60;;;;;;4987868;28;20440;-75
2021/03/09 14:54:19;;;;;;;8.30;3.90;;;6.10;56.10;;;;;;4975246;28;20202;-76
2021/03/09 14:56:45;;;;;;;5.00;3.47;;;5.90;55.90;;;;;;4969803;28;20182;-76
2021/03/09 14:59:11;;;;;;;6.20;3.93;;;6.10;56.20;;;;;;4963346;28;20690;-76
2021/03/09 15:01:37;;;;;;;4.93;3.50;;;6.00;56.10;;;;;;4975959;28;20696;-76
2021/03/09 15:04:02;;;;;;;4.30;3.43;;;5.90;55.80;;;;;;4984274;28;20436;-78
2021/03/09 15:09:32;;;;;;;8.83;3.83;;;5.50;56.80;;;;;;4967457;28;20185;-75
2021/03/09 15:11:57;;;;;;;6.27;4.23;;;5.20;57.60;;;;;;4955574;29;20415;-75
2021/03/09 15:14:23;;;;;;;5.57;4.17;;;5.10;56.00;;;;;;4955524;28;20214;-75
2021/03/09 15:16:49;;;;;;;6.13;3.90;;;5.10;56.90;;;;;;4955620;28;20175;-75
2021/03/09 15:19:15;;;;;;;7.43;4.70;;;5.10;56.90;;;;;;5030368;23;20510;-76
2021/03/09 15:21:42;;;;;;;11.30;7.17;;;5.10;57.60;;;;;;5007255;28;20468;-76
2021/03/09 15:24:08;;;;;;;7.40;4.90;;;4.60;59.80;;;;;;5013209;28;20424;-76
2021/03/09 15:26:33;;;;;;;5.10;3.97;;;4.30;59.90;;;;;;5014004;28;20863;-77
2021/03/09 15:28:59;;;;;;;9.70;3.97;;;4.50;59.80;;;;;;5013028;28;20903;-78
2021/03/09 15:31:24;;;;;;;7.77;4.73;;;4.50;60.40;;;;;;5013960;28;20208;-76
2021/03/09 15:33:50;;;;;;;7.50;4.07;;;4.40;59.10;;;;;;5013955;28;20173;-75
2021/03/09 15:36:15;;;;;;;9.53;3.90;;;4.30;60.10;;;;;;5012806;28;20227;-76
2021/03/09 15:38:41;;;;;;;9.00;4.20;;;4.40;59.90;;;;;;5013244;28;20195;-75
2021/03/09 15:41:06;;;;;;;6.07;3.60;;;4.20;59.70;;;;;;5012309;28;20231;-75
2021/03/09 15:43:33;;;;;;;4.93;3.37;;;4.20;59.50;;;;;;5013774;28;20180;-75
2021/03/09 15:45:58;;;;;;;6.97;4.00;;;4.10;59.70;;;;;;5014064;28;20529;-75
2021/03/09 15:48:23;;;;;;;5.20;3.40;;;4.00;59.80;;;;;;5011828;28;20439;-78
2021/03/09 15:50:49;;;;;;;5.30;4.17;;;4.00;60.00;;;;;;5012432;28;20185;-76
2021/03/09 15:53:15;;;;;;;7.30;4.50;;;3.90;60.50;;;;;;5012693;28;20195;-76
2021/03/09 15:55:41;;;;;;;7.90;4.33;;;3.80;60.90;;;;;;5013350;28;20675;-76
2021/03/09 15:58:07;;;;;;;9.30;5.43;;;3.70;61.60;;;;;;5013788;28;20196;-78
2021/03/09 16:00:33;;;;;;;5.30;4.20;;;3.70;62.90;;;;;;5015736;28;20522;-75
2021/03/09 16:02:59;;;;;;;5.30;4.10;;;3.60;63.00;;;;;;5014249;28;20499;-75
2021/03/09 16:05:27;;;;;;;8.93;5.00;;;3.60;62.80;;;;;;5032798;28;20179;-78
2021/03/09 16:07:53;;;;;;;6.80;5.10;;;3.60;63.70;;;;;;5032524;28;20191;-76
2021/03/09 16:10:18;;;;;;;7.97;4.50;;;3.70;63.90;;;;;;5024720;28;20422;-76
2021/03/09 16:12:45;;;;;;;5.73;4.27;;;3.70;63.90;;;;;;5022302;28;20423;-76
2021/03/09 16:15:12;;;;;;;9.13;5.30;;;3.70;64.20;;;;;;5032753;28;20196;-80
2021/03/09 16:17:43;;;;;;;10.70;5.47;;;3.60;65.10;;;;;;5024616;28;20407;-77
2021/03/09 16:20:09;;;;;;;10.03;6.13;;;3.60;65.70;;;;;;5015158;28;20427;-76
2021/03/09 16:22:35;;;;;;;6.57;4.33;;;3.50;66.30;;;;;;5008396;28;20959;-77
2021/03/09 16:25:04;;;;;;;7.90;4.63;;;3.50;66.70;;;;;;5024121;28;20411;-77
2021/03/09 16:27:31;;;;;;;6.77;4.77;;;3.30;67.00;;;;;;5016041;28;20424;-76
2021/03/09 16:29:57;;;;;;;11.20;7.03;;;3.30;68.00;;;;;;5026028;28;20467;-76
2021/03/09 16:32:23;;;;;;;10.50;7.30;;;3.20;68.90;;;;;;5031231;28;20455;-78
2021/03/09 16:34:48;;;;;;;12.17;7.57;;;3.10;69.10;;;;;;5032948;28;20180;-75
2021/03/09 16:37:14;;;;;;;12.67;8.30;;;3.00;70.10;;;;;;5032491;28;20187;-76
2021/03/09 16:39:39;;;;;;;10.50;7.07;;;2.90;70.80;;;;;;5031708;28;20298;-75
2021/03/09 16:42:06;;;;;;;14.30;8.30;;;2.80;71.30;;;;;;5032819;28;20238;-75
2021/03/09 16:44:31;;;;;;;15.60;9.13;;;2.70;72.10;;;;;;5032959;28;20173;-76
2021/03/09 16:46:57;;;;;;;17.33;9.30;;;2.70;72.30;;;;;;5032368;28;20902;-76
2021/03/09 16:49:23;;;;;;;37.87;19.90;;;2.50;72.90;;;;;;5032388;28;20605;-76
2021/03/09 16:51:48;;;;;;;48.40;24.53;;;2.40;73.20;;;;;;5032836;28;20218;-76
2021/03/09 16:54:14;;;;;;;64.63;33.17;;;2.40;73.00;;;;;;5032477;28;20173;-75
2021/03/09 16:56:39;;;;;;;72.80;34.70;;;2.30;73.70;;;;;;5013082;28;20180;-76
2021/03/09 16:59:05;;;;;;;55.33;28.73;;;2.10;75.00;;;;;;5001380;28;20255;-74
2021/03/09 17:01:31;;;;;;;20.93;13.47;;;2.00;76.70;;;;;;5003593;28;20584;-79
2021/03/09 17:03:57;;;;;;;15.83;9.97;;;1.90;77.70;;;;;;5018099;28;20408;-76